createdAt,value
2023-04-18T00:01:03.518Z,100053.72
2023-04-18T00:03:31.205Z,100051.47
2023-04-18T00:05:59.748Z,100041.22
2023-04-18T00:08:26.926Z,100048.22
2023-04-18T00:10:54.346Z,100045.47
2023-04-18T00:13:21.842Z,100045.47
2023-04-18T00:15:50.480Z,100046.50
2023-04-18T00:18:18.651Z,100049.09
2023-04-18T00:20:49.350Z,100043.75
2023-04-18T00:23:17.818Z,100046.19
2023-04-18T00:25:45.150Z,100040.91
2023-04-18T00:28:12.894Z,100034.31
2023-04-18T00:30:42.175Z,100043.59
2023-04-18T00:33:09.708Z,100041.03
2023-04-18T00:35:38.424Z,100044.63
2023-04-18T00:38:05.678Z,100041.97
2023-04-18T00:40:33.009Z,100043.59
2023-04-18T00:43:01.090Z,100049.00
2023-04-18T00:45:28.537Z,100048.28
2023-04-18T00:47:58.469Z,100042.84
2023-04-18T00:50:26.644Z,100039.72
2023-04-18T00:52:55.013Z,100037.94
2023-04-18T00:55:23.187Z,100035.16
2023-04-18T00:57:51.275Z,100040.34
2023-04-18T01:02:57.929Z,100032.38
2023-04-18T01:05:27.309Z,100032.81
2023-04-18T01:07:59.010Z,100029.78
2023-04-18T01:10:27.998Z,100033.66
2023-04-18T01:13:15.584Z,100026.34
2023-04-18T01:15:44.945Z,100029.25
2023-04-18T01:18:13.659Z,100028.47
2023-04-18T01:20:44.181Z,100023.09
2023-04-18T01:23:14.701Z,100035.75
2023-04-18T01:25:42.854Z,100026.66
2023-04-18T01:28:10.619Z,100021.34
2023-04-18T01:30:44.216Z,100029.47
2023-04-18T01:33:11.459Z,100030.94
2023-04-18T01:35:39.226Z,100019.78
2023-04-18T01:38:06.693Z,100026.72
2023-04-18T01:40:34.035Z,100030.34
2023-04-18T01:43:01.670Z,100027.53
2023-04-18T01:45:28.878Z,100026.66
2023-04-18T01:47:56.780Z,100029.47
2023-04-18T01:50:24.390Z,100037.59
2023-04-18T01:52:51.753Z,100028.44
2023-04-18T01:55:19.219Z,100023.97
2023-04-18T01:57:46.693Z,100027.63
2023-04-18T02:00:16.477Z,100025.97
2023-04-18T02:02:44.024Z,100024.31
2023-04-18T02:05:11.623Z,100023.25
2023-04-18T02:07:39.312Z,100021.34
2023-04-18T02:10:08.063Z,100023.25
2023-04-18T02:12:39.523Z,100022.41
2023-04-18T02:15:08.527Z,100021.19
2023-04-18T02:17:36.621Z,100019.63
2023-04-18T02:20:04.967Z,100013.47
2023-04-18T02:22:32.546Z,100015.34
2023-04-18T02:24:59.964Z,100018.25
2023-04-18T02:27:27.373Z,100019.97
2023-04-18T02:29:54.884Z,100019.69
2023-04-18T02:32:22.295Z,100021.53
2023-04-18T02:34:49.784Z,100016.06
2023-04-18T02:37:17.244Z,100022.16
2023-04-18T02:39:44.706Z,100015.03
2023-04-18T02:42:14.216Z,100022.09
2023-04-18T02:44:42.646Z,100017.91
2023-04-18T02:47:10.267Z,100029.16
2023-04-18T02:49:39.614Z,100026.53
2023-04-18T02:52:08.415Z,100023.03
2023-04-18T02:54:35.657Z,100022.19
2023-04-18T02:57:03.745Z,100024.88
2023-04-18T02:59:32.959Z,100028.44
2023-04-18T03:02:00.051Z,100019.47
2023-04-18T03:04:28.523Z,100024.88
2023-04-18T03:06:56.478Z,100029.88
2023-04-18T03:09:23.870Z,100023.41
2023-04-18T03:11:51.562Z,100027.19
2023-04-18T03:14:19.155Z,100035.03
2023-04-18T03:16:47.407Z,100020.78
2023-04-18T03:19:22.395Z,100030.22
2023-04-18T03:21:49.900Z,100031.81
2023-04-18T03:24:17.769Z,100030.25
2023-04-18T03:26:46.395Z,100030.25
2023-04-18T03:29:19.687Z,100027.59
2023-04-18T03:31:46.874Z,100030.25
2023-04-18T03:34:14.517Z,100029.25
2023-04-18T03:36:42.959Z,100027.81
2023-04-18T03:39:10.326Z,100032.25
2023-04-18T03:41:37.710Z,100031.53
2023-04-18T03:44:05.378Z,100034.81
2023-04-18T03:46:39.433Z,100028.53
2023-04-18T03:49:06.877Z,100026.19
2023-04-18T03:51:42.244Z,100039.19
2023-04-18T03:54:09.590Z,100031.19
2023-04-18T03:56:37.061Z,100032.88
2023-04-18T03:59:04.395Z,100039.94
2023-04-18T04:01:32.081Z,100042.38
2023-04-18T04:03:59.680Z,100046.00
2023-04-18T04:06:27.887Z,100046.84
2023-04-18T04:08:55.364Z,100046.94
2023-04-18T04:11:22.894Z,100046.72
2023-04-18T04:13:50.161Z,100050.94
2023-04-18T04:16:17.844Z,100056.09
2023-04-18T04:18:46.141Z,100054.94
2023-04-18T04:21:13.670Z,100052.22
2023-04-18T04:23:42.845Z,100064.53
2023-04-18T04:26:10.513Z,100068.84
2023-04-18T04:28:40.193Z,100072.50
2023-04-18T04:31:10.525Z,100071.53
2023-04-18T04:33:39.226Z,100072.75
2023-04-18T04:36:08.024Z,100069.13
2023-04-18T04:38:38.522Z,100082.09
2023-04-18T04:41:09.991Z,100082.97
2023-04-18T04:43:38.059Z,100091.97
2023-04-18T04:46:07.875Z,100098.16
2023-04-18T04:48:36.251Z,100094.81
2023-04-18T04:51:03.914Z,100095.53
2023-04-18T04:53:31.503Z,100097.38
2023-04-18T04:55:59.554Z,100097.16
2023-04-18T04:58:27.355Z,100103.38
2023-04-18T05:01:02.345Z,100104.06
2023-04-18T05:03:29.914Z,100108.34
2023-04-18T05:05:57.260Z,100114.50
2023-04-18T05:08:24.645Z,100118.75
2023-04-18T05:10:52.118Z,100123.91
2023-04-18T05:13:19.496Z,100126.47
2023-04-18T05:15:47.292Z,100121.41
2023-04-18T05:18:14.673Z,100120.56
2023-04-18T05:20:49.375Z,100124.06
2023-04-18T05:23:16.563Z,100119.28
2023-04-18T05:25:44.980Z,100117.56
2023-04-18T05:28:12.425Z,100121.81
2023-04-18T05:30:41.287Z,100122.66
2023-04-18T05:33:08.411Z,100121.69
2023-04-18T05:35:36.187Z,100117.97
2023-04-18T05:38:03.319Z,100129.22
2023-04-18T05:40:31.055Z,100117.72
2023-04-18T05:43:00.953Z,100118.59
2023-04-18T05:45:28.349Z,100126.25
2023-04-18T05:47:55.725Z,100119.91
2023-04-18T05:50:23.427Z,100118.78
2023-04-18T05:52:51.744Z,100123.25
2023-04-18T05:55:19.052Z,100132.66
2023-04-18T05:57:46.602Z,100126.72
2023-04-18T06:00:14.765Z,100123.88
2023-04-18T06:02:41.993Z,100125.72
2023-04-18T06:05:09.787Z,100132.47
2023-04-18T06:07:38.690Z,100135.44
2023-04-18T06:10:11.316Z,100138.53
2023-04-18T06:12:38.456Z,100139.34
2023-04-18T06:15:06.697Z,100131.31
2023-04-18T06:17:35.212Z,100143.59
2023-04-18T06:20:05.659Z,100146.31
2023-04-18T06:22:39.200Z,100146.22
2023-04-18T06:25:09.088Z,100155.19
2023-04-18T06:27:38.976Z,100151.66
2023-04-18T06:30:12.256Z,100160.31
2023-04-18T06:32:39.721Z,100158.56
2023-04-18T06:35:09.170Z,100158.59
2023-04-18T06:37:37.709Z,100171.88
2023-04-18T06:40:05.657Z,100159.44
2023-04-18T06:42:33.091Z,100170.03
2023-04-18T06:45:00.551Z,100167.22
2023-04-18T06:47:28.232Z,100169.09
2023-04-18T06:49:55.347Z,100168.22
2023-04-18T06:52:22.428Z,100183.31
2023-04-18T06:54:49.800Z,100179.75
2023-04-18T06:57:17.283Z,100178.03
2023-04-18T06:59:44.682Z,100194.03
2023-04-18T07:02:11.705Z,100188.38
2023-04-18T07:04:39.259Z,100187.19
2023-04-18T07:07:08.650Z,100188.63
2023-04-18T07:09:36.041Z,100198.78
2023-04-18T07:12:03.592Z,100188.72
2023-04-18T07:14:32.855Z,100199.00
2023-04-18T07:17:02.019Z,100197.38
2023-04-18T07:19:30.474Z,100205.03
2023-04-18T07:21:57.996Z,100196.75
2023-04-18T07:24:26.624Z,100195.06
2023-04-18T07:26:55.260Z,100207.19
2023-04-18T07:29:22.650Z,100200.69
2023-04-18T07:31:52.485Z,100210.00
2023-04-18T07:34:19.906Z,100206.66
2023-04-18T07:36:47.352Z,100214.16
2023-04-18T07:39:14.923Z,100211.50
2023-04-18T07:41:42.192Z,100212.13
2023-04-18T07:44:09.283Z,100216.84
2023-04-18T07:46:36.811Z,100207.31
2023-04-18T07:49:05.167Z,100220.88
2023-04-18T07:51:32.780Z,100221.13
2023-04-18T07:54:02.105Z,100217.97
2023-04-18T07:56:30.603Z,100225.00
2023-04-18T07:58:57.973Z,100217.38
2023-04-18T08:01:27.443Z,100219.75
2023-04-18T08:03:55.295Z,100215.34
2023-04-18T08:06:22.891Z,100221.25
2023-04-18T08:08:50.328Z,100218.88
2023-04-18T08:11:17.823Z,100216.63
2023-04-18T08:13:45.306Z,100218.53
2023-04-18T08:16:14.805Z,100217.78
2023-04-18T08:18:43.778Z,100223.56
2023-04-18T08:21:11.329Z,100219.03
2023-04-18T08:23:41.020Z,100228.56
2023-04-18T08:26:08.206Z,100217.13
2023-04-18T08:28:35.856Z,100221.63
2023-04-18T08:31:04.163Z,100221.63
2023-04-18T08:33:32.003Z,100217.16
2023-04-18T08:35:59.637Z,100218.91
2023-04-18T08:38:27.135Z,100211.47
2023-04-18T08:40:54.982Z,100224.38
2023-04-18T08:43:24.885Z,100219.81
2023-04-18T08:45:52.787Z,100228.75
2023-04-18T08:48:20.961Z,100231.66
2023-04-18T08:50:48.032Z,100229.78
2023-04-18T08:53:21.446Z,100232.03
2023-04-18T08:55:50.823Z,100236.78
2023-04-18T08:58:27.447Z,100240.31
2023-04-18T09:00:55.334Z,100228.75
2023-04-18T09:03:44.458Z,100227.47
2023-04-18T09:06:15.158Z,100210.13
2023-04-18T09:08:46.742Z,100219.91
2023-04-18T09:11:29.563Z,100216.19
2023-04-18T09:13:59.310Z,100223.44
2023-04-18T09:16:28.031Z,100218.72
2023-04-18T09:19:18.726Z,100218.66
2023-04-18T09:21:49.086Z,100215.63
2023-04-18T09:24:24.466Z,100227.69
2023-04-18T09:26:54.149Z,100226.31
2023-04-18T09:29:46.491Z,100223.78
2023-04-18T09:32:27.358Z,100222.16
2023-04-18T09:34:59.807Z,100225.59
2023-04-18T09:37:29.299Z,100233.91
2023-04-18T09:40:17.245Z,100228.59
2023-04-18T09:42:44.630Z,100222.28
2023-04-18T09:45:13.442Z,100225.91
2023-04-18T09:47:43.170Z,100225.22
2023-04-18T09:50:11.316Z,100221.69
2023-04-18T09:52:48.107Z,100214.00
2023-04-18T09:55:17.902Z,100217.41
2023-04-18T09:57:47.567Z,100219.19
2023-04-18T10:00:27.542Z,100216.00
2023-04-18T10:03:05.804Z,100207.69
2023-04-18T10:05:35.901Z,100206.66
2023-04-18T10:08:04.057Z,100204.53
2023-04-18T10:10:31.611Z,100204.38
2023-04-18T10:13:01.732Z,100198.66
2023-04-18T10:15:31.252Z,100200.00
2023-04-18T10:18:05.706Z,100205.84
2023-04-18T10:20:35.575Z,100198.56
2023-04-18T10:23:36.537Z,100196.59
2023-04-18T10:26:08.540Z,100200.00
2023-04-18T10:28:58.874Z,100191.78
2023-04-18T10:31:28.244Z,100189.81
2023-04-18T10:36:29.169Z,100188.81
2023-04-18T10:39:03.362Z,100186.38
2023-04-18T10:41:32.717Z,100195.28
2023-04-18T10:44:20.900Z,100178.78
2023-04-18T10:46:53.274Z,100178.41
2023-04-18T10:49:27.358Z,100180.56
2023-04-18T10:51:58.949Z,100178.22
2023-04-18T10:54:44.684Z,100176.81
2023-04-18T10:57:13.479Z,100164.78
2023-04-18T10:59:43.448Z,100183.25
2023-04-18T11:02:30.552Z,100170.72
2023-04-18T11:05:05.934Z,100168.00
2023-04-18T11:07:45.323Z,100173.16
2023-04-18T11:10:13.727Z,100171.66
2023-04-18T11:12:55.082Z,100178.81
2023-04-18T11:15:24.704Z,100170.25
2023-04-18T11:18:05.228Z,100170.41
2023-04-18T11:20:40.071Z,100169.09
2023-04-18T11:23:21.642Z,100166.84
2023-04-18T11:25:52.149Z,100174.91
2023-04-18T11:28:21.855Z,100171.03
2023-04-18T11:30:49.736Z,100173.53
2023-04-18T11:33:17.085Z,100175.72
2023-04-18T11:35:46.478Z,100163.09
2023-04-18T11:38:15.404Z,100165.22
2023-04-18T11:40:50.087Z,100172.22
2023-04-18T11:43:26.778Z,100165.56
2023-04-18T11:45:56.105Z,100163.53
2023-04-18T11:48:24.327Z,100168.44
2023-04-18T11:50:51.760Z,100159.72
2023-04-18T11:53:45.872Z,100167.16
2023-04-18T11:56:14.247Z,100151.28
2023-04-18T11:58:43.154Z,100157.19
2023-04-18T12:01:20.893Z,100157.97
2023-04-18T12:04:09.084Z,100152.91
2023-04-18T12:06:50.242Z,100153.22
2023-04-18T12:09:19.601Z,100149.91
2023-04-18T12:12:07.626Z,100153.00
2023-04-18T12:14:36.240Z,100149.88
2023-04-18T12:17:09.633Z,100151.53
2023-04-18T12:19:37.530Z,100142.78
2023-04-18T12:22:08.437Z,100150.53
2023-04-18T12:24:36.371Z,100151.25
2023-04-18T12:27:03.829Z,100144.78
2023-04-18T12:29:30.979Z,100141.34
2023-04-18T12:31:58.500Z,100143.16
2023-04-18T12:34:25.997Z,100143.19
2023-04-18T12:36:54.090Z,100138.16
2023-04-18T12:39:21.391Z,100141.16
2023-04-18T12:41:49.999Z,100141.69
2023-04-18T12:44:17.566Z,100135.94
2023-04-18T12:46:45.815Z,100141.63
2023-04-18T12:49:13.283Z,100132.09
2023-04-18T12:51:41.068Z,100136.06
2023-04-18T12:54:10.391Z,100128.53
2023-04-18T12:56:38.705Z,100135.88
2023-04-18T12:59:12.501Z,100141.72
2023-04-18T13:01:39.735Z,100133.28
2023-04-18T13:04:12.524Z,100134.09
2023-04-18T13:06:42.478Z,100133.19
2023-04-18T13:09:11.237Z,100130.41
2023-04-18T13:11:38.807Z,100130.34
2023-04-18T13:14:06.189Z,100126.28
2023-04-18T13:16:33.821Z,100125.50
2023-04-18T13:19:07.273Z,100126.38
2023-04-18T13:21:34.728Z,100126.03
2023-04-18T13:24:02.274Z,100127.31
2023-04-18T13:26:29.720Z,100121.47
2023-04-18T13:28:58.123Z,100122.22
2023-04-18T13:31:26.634Z,100115.28
2023-04-18T13:33:54.082Z,100126.38
2023-04-18T13:36:21.683Z,100131.00
2023-04-18T13:38:49.432Z,100122.53
2023-04-18T13:41:17.175Z,100120.59
2023-04-18T13:43:44.450Z,100128.81
2023-04-18T13:46:12.339Z,100119.84
2023-04-18T13:48:41.055Z,100112.59
2023-04-18T13:51:08.307Z,100114.09
2023-04-18T13:53:35.956Z,100117.56
2023-04-18T13:56:03.286Z,100122.88
2023-04-18T13:58:30.714Z,100130.03
2023-04-18T14:00:59.189Z,100134.28
2023-04-18T14:03:27.270Z,100131.75
2023-04-18T14:05:54.796Z,100132.97
2023-04-18T14:08:22.346Z,100136.25
2023-04-18T14:10:49.593Z,100135.78
2023-04-18T14:13:17.067Z,100126.03
2023-04-18T14:15:44.519Z,100131.91
2023-04-18T14:18:12.103Z,100134.53
2023-04-18T14:20:39.551Z,100133.88
2023-04-18T14:23:06.974Z,100138.72
2023-04-18T14:25:35.556Z,100133.19
2023-04-18T14:28:09.906Z,100125.38
2023-04-18T14:30:44.548Z,100129.78
2023-04-18T14:33:11.827Z,100129.44
2023-04-18T14:35:38.871Z,100123.09
2023-04-18T14:38:06.486Z,100119.78
2023-04-18T14:40:33.784Z,100126.66
2023-04-18T14:43:01.513Z,100120.72
2023-04-18T14:45:34.243Z,100124.44
2023-04-18T14:48:01.923Z,100120.56
2023-04-18T14:50:29.578Z,100128.84
2023-04-18T14:52:59.013Z,100121.91
2023-04-18T14:55:26.493Z,100121.59
2023-04-18T14:57:55.100Z,100123.28
2023-04-18T15:00:28.422Z,100130.28
2023-04-18T15:02:56.028Z,100126.94
2023-04-18T15:05:26.718Z,100126.56
2023-04-18T15:07:54.099Z,100124.94
2023-04-18T15:10:22.767Z,100128.59
2023-04-18T15:12:51.394Z,100128.63
2023-04-18T15:15:22.980Z,100126.97
2023-04-18T15:17:50.441Z,100126.59
2023-04-18T15:20:19.017Z,100123.13
2023-04-18T15:22:46.358Z,100124.41
2023-04-18T15:25:16.707Z,100125.69
2023-04-18T15:27:44.323Z,100122.41
2023-04-18T15:30:12.482Z,100131.31
2023-04-18T15:32:42.538Z,100124.25
2023-04-18T15:35:11.074Z,100128.03
2023-04-18T15:37:38.267Z,100129.59
2023-04-18T15:40:09.675Z,100134.44
2023-04-18T15:42:37.564Z,100130.69
2023-04-18T15:45:05.559Z,100127.31
2023-04-18T15:47:34.245Z,100140.78
2023-04-18T15:50:03.137Z,100136.16
2023-04-18T15:52:30.793Z,100141.53
2023-04-18T15:54:58.287Z,100139.00
2023-04-18T15:57:25.503Z,100136.91
2023-04-18T15:59:52.985Z,100144.72
2023-04-18T16:02:20.082Z,100142.28
2023-04-18T16:04:47.617Z,100145.91
2023-04-18T16:07:16.375Z,100140.16
2023-04-18T16:09:45.108Z,100142.59
2023-04-18T16:12:14.440Z,100146.94
2023-04-18T16:14:43.880Z,100150.25
2023-04-18T16:17:12.421Z,100151.03
2023-04-18T16:19:41.243Z,100147.13
2023-04-18T16:22:12.468Z,100146.06
2023-04-18T16:24:41.535Z,100142.97
2023-04-18T16:27:11.400Z,100144.00
2023-04-18T16:29:38.989Z,100147.03
2023-04-18T16:32:09.147Z,100145.03
2023-04-18T16:34:36.644Z,100157.63
2023-04-18T16:37:03.775Z,100157.81
2023-04-18T16:39:31.483Z,100147.41
2023-04-18T16:41:59.058Z,100153.94
2023-04-18T16:44:27.339Z,100157.22
2023-04-18T16:46:55.083Z,100155.88
2023-04-18T16:49:23.969Z,100166.16
2023-04-18T16:51:59.650Z,100156.97
2023-04-18T16:54:26.877Z,100155.59
2023-04-18T16:56:54.332Z,100158.31
2023-04-18T16:59:21.852Z,100154.81
2023-04-18T17:01:49.405Z,100157.97
2023-04-18T17:04:17.038Z,100149.72
2023-04-18T17:06:45.026Z,100156.66
2023-04-18T17:09:14.024Z,100157.13
2023-04-18T17:11:42.750Z,100153.09
2023-04-18T17:14:10.419Z,100165.91
2023-04-18T17:16:39.719Z,100161.44
2023-04-18T17:19:09.108Z,100159.31
2023-04-18T17:21:37.978Z,100166.31
2023-04-18T17:24:07.252Z,100168.81
2023-04-18T17:26:35.957Z,100170.63
2023-04-18T17:29:06.830Z,100165.88
2023-04-18T17:31:34.785Z,100169.41
2023-04-18T17:34:06.505Z,100177.16
2023-04-18T17:36:34.305Z,100173.84
2023-04-18T17:39:08.388Z,100175.03
2023-04-18T17:41:39.067Z,100169.50
2023-04-18T17:44:10.046Z,100173.06
2023-04-18T17:46:38.813Z,100170.25
2023-04-18T17:49:07.070Z,100175.56
2023-04-18T17:51:34.606Z,100171.31
2023-04-18T17:54:05.747Z,100179.97
2023-04-18T17:56:33.859Z,100184.09
2023-04-18T17:59:08.089Z,100175.19
2023-04-18T18:01:45.373Z,100177.91
2023-04-18T18:04:15.269Z,100189.28
2023-04-18T18:06:53.367Z,100184.72
2023-04-18T18:09:21.481Z,100186.41
2023-04-18T18:11:50.506Z,100186.63
2023-04-18T18:14:18.185Z,100181.94
2023-04-18T18:16:46.744Z,100187.38
2023-04-18T18:19:15.646Z,100187.69
2023-04-18T18:21:44.852Z,100189.63
2023-04-18T18:24:13.316Z,100192.69
2023-04-18T18:26:44.275Z,100191.19
2023-04-18T18:29:13.209Z,100194.63
2023-04-18T18:31:42.189Z,100189.19
2023-04-18T18:34:12.878Z,100184.41
2023-04-18T18:36:41.880Z,100189.19
2023-04-18T18:39:14.058Z,100185.59
2023-04-18T18:41:44.908Z,100193.66
2023-04-18T18:44:13.711Z,100192.50
2023-04-18T18:46:43.511Z,100186.31
2023-04-18T18:49:13.757Z,100183.53
2023-04-18T18:51:43.643Z,100187.03
2023-04-18T18:54:13.919Z,100187.69
2023-04-18T18:56:48.155Z,100183.97
2023-04-18T18:59:19.096Z,100185.75
2023-04-18T19:01:50.030Z,100183.97
2023-04-18T19:04:19.266Z,100187.59
2023-04-18T19:06:51.280Z,100179.06
2023-04-18T19:09:19.686Z,100178.25
2023-04-18T19:11:48.914Z,100185.38
2023-04-18T19:14:16.731Z,100178.34
2023-04-18T19:16:45.050Z,100179.28
2023-04-18T19:19:13.104Z,100178.69
2023-04-18T19:21:46.152Z,100174.97
2023-04-18T19:24:14.459Z,100169.00
2023-04-18T19:26:45.979Z,100172.69
2023-04-18T19:29:15.042Z,100171.78
2023-04-18T19:31:45.383Z,100178.97
2023-04-18T19:34:14.718Z,100174.59
2023-04-18T19:36:46.419Z,100170.28
2023-04-18T19:39:17.965Z,100167.75
2023-04-18T19:41:49.755Z,100168.03
2023-04-18T19:44:19.223Z,100166.28
2023-04-18T19:46:52.404Z,100164.69
2023-04-18T19:49:23.398Z,100170.41
2023-04-18T19:51:53.687Z,100169.75
2023-04-18T19:54:24.472Z,100165.50
2023-04-18T19:56:52.662Z,100163.50
2023-04-18T19:59:29.481Z,100165.38
2023-04-18T20:02:00.996Z,100158.44
2023-04-18T20:04:31.897Z,100156.06
2023-04-18T20:07:00.981Z,100160.72
2023-04-18T20:09:33.203Z,100159.25
2023-04-18T20:12:02.829Z,100157.66
2023-04-18T20:14:32.882Z,100162.34
2023-04-18T20:17:00.858Z,100155.63
2023-04-18T20:19:30.615Z,100149.91
2023-04-18T20:21:59.619Z,100152.66
2023-04-18T20:24:29.645Z,100153.50
2023-04-18T20:27:00.234Z,100149.03
2023-04-18T20:29:28.633Z,100151.38
2023-04-18T20:31:57.233Z,100146.94
2023-04-18T20:34:26.301Z,100148.91
2023-04-18T20:36:54.582Z,100146.16
2023-04-18T20:39:24.462Z,100152.38
2023-04-18T20:41:56.175Z,100146.38
2023-04-18T20:44:25.346Z,100140.28
2023-04-18T20:46:55.057Z,100135.78
2023-04-18T20:49:22.418Z,100137.56
2023-04-18T20:51:50.097Z,100139.16
2023-04-18T20:54:17.419Z,100135.31
2023-04-18T20:56:51.057Z,100132.66
2023-04-18T20:59:18.362Z,100131.72
2023-04-18T21:01:47.202Z,100135.97
2023-04-18T21:04:16.545Z,100128.69
2023-04-18T21:06:45.988Z,100127.34
2023-04-18T21:09:13.477Z,100129.56
2023-04-18T21:11:42.802Z,100125.16
2023-04-18T21:14:10.238Z,100122.41
2023-04-18T21:16:39.725Z,100117.09
2023-04-18T21:19:08.910Z,100120.69
2023-04-18T21:21:36.323Z,100118.97
2023-04-18T21:24:03.838Z,100116.97
2023-04-18T21:26:37.230Z,100110.63
2023-04-18T21:29:05.185Z,100106.31
2023-04-18T21:31:34.819Z,100107.44
2023-04-18T21:34:05.867Z,100104.25
2023-04-18T21:36:34.337Z,100099.31
2023-04-18T21:39:01.966Z,100097.00
2023-04-18T21:41:31.198Z,100099.06
2023-04-18T21:43:58.709Z,100101.06
2023-04-18T21:46:27.124Z,100092.72
2023-04-18T21:48:54.566Z,100090.97
2023-04-18T21:51:22.115Z,100082.88
2023-04-18T21:53:49.661Z,100085.34
2023-04-18T21:56:17.391Z,100076.84
2023-04-18T21:58:45.936Z,100086.56
2023-04-18T22:01:13.079Z,100083.00
2023-04-18T22:03:40.537Z,100076.25
2023-04-18T22:06:10.069Z,100072.50
2023-04-18T22:08:37.339Z,100073.31
2023-04-18T22:11:05.031Z,100075.16
2023-04-18T22:13:33.384Z,100063.53
2023-04-18T22:16:08.586Z,100071.47
2023-04-18T22:18:38.280Z,100057.25
2023-04-18T22:21:06.389Z,100054.53
2023-04-18T22:23:33.802Z,100049.25
2023-04-18T22:26:01.064Z,100059.78
2023-04-18T22:28:29.310Z,100056.41
2023-04-18T22:30:57.145Z,100049.34
2023-04-18T22:33:25.734Z,100040.50
2023-04-18T22:35:53.345Z,100037.91
2023-04-18T22:38:20.708Z,100046.59
2023-04-18T22:40:48.274Z,100041.41
2023-04-18T22:43:17.290Z,100037.03
2023-04-18T22:45:45.968Z,100035.31
2023-04-18T22:48:13.620Z,100032.59
2023-04-18T22:50:43.621Z,100028.34
2023-04-18T22:53:11.370Z,100023.13
2023-04-18T22:55:43.389Z,100028.31
2023-04-18T22:58:11.115Z,100017.94
2023-04-18T23:00:38.728Z,100029.38
2023-04-18T23:03:06.071Z,100012.75
2023-04-18T23:05:34.667Z,100025.03
2023-04-18T23:08:08.238Z,100014.50
2023-04-18T23:10:43.649Z,100018.19
2023-04-18T23:13:11.301Z,100009.44
2023-04-18T23:15:38.638Z,100000.56
2023-04-18T23:18:06.266Z,100001.59
2023-04-18T23:20:36.645Z,100001.78
2023-04-18T23:23:06.204Z,99994.69
2023-04-18T23:25:34.753Z,99994.47
2023-04-18T23:28:02.142Z,99986.63
2023-04-18T23:30:29.574Z,99987.59
2023-04-18T23:32:58.251Z,99987.69
2023-04-18T23:35:25.411Z,99981.53
2023-04-18T23:37:52.914Z,99983.25
2023-04-18T23:40:20.627Z,99978.91
2023-04-18T23:42:47.768Z,99973.78
2023-04-18T23:45:15.471Z,99971.16
2023-04-18T23:47:42.693Z,99970.19
2023-04-18T23:50:16.262Z,99965.69
2023-04-18T23:52:43.808Z,99963.28
2023-04-18T23:55:11.185Z,99958.00
2023-04-18T23:57:38.745Z,99961.38
